Latest Weather Observations for Ernabella/Pukatja

IDS60801

Issued at 8:31 am CDT Tuesday 6 December 2022 (issued every 10 minutes, with the page automatically refreshed every 10 minutes)

About weather observations | Map of weather stations | Latest weather observations for SA | Other Formats
Station Details ID: 016097 Name: PUKATJA Lat: -26.26 Lon: 132.18 Height: 703.2 m
Data from the previous 72 hours. | See also: Recent months at Ernabella/Pukatja
Date/Time
CDT
Temp
°C
App
Temp
°C
Dew
Point
°C
Rel
Hum
%
Delta-T
°C
Wind Press
QNH
hPa
Press
MSL
hPa
Rain since
9am
mm
Dir  Spd
km/h
Gust
km/h
Spd
kts
Gust
kts
06/08:30am 31.9 24.9 -3.5 10 16.7 N 24 37 13 20 1010.7 1005.8 0.0
06/08:00am 30.0 25.2 -2.5 12 15.4 N 13 20 7 11 1010.6 1005.7 0.0
06/07:30am 28.0 24.5 -1.0 15 13.9 NNE 7 13 4 7 1010.4 1005.5 0.0
06/07:00am 26.1 22.7 -0.8 17 12.7 ESE 7 9 4 5 1010.3 1005.4 0.0
06/06:30am 25.2 21.8 -0.8 18 12.3 ESE 7 11 4 6 1010.2 1005.3 0.0
06/06:00am 27.0 23.2 -0.9 16 13.3 NE 9 15 5 8 1010.0 1005.0 0.0
06/05:30am 26.6 23.1 -1.3 16 13.2 NE 7 13 4 7 1009.8 1004.8 0.0
06/05:00am 27.3 23.4 -1.6 15 13.6 NE 9 15 5 8 1009.8 1004.8 0.0
06/04:30am 27.3 23.1 -0.7 16 13.4 NE 11 17 6 9 1009.8 1004.8 0.0
06/04:00am 26.9 23.4 -1.0 16 13.2 NE 7 13 4 7 1010.0 1005.0 0.0
06/03:30am 27.8 23.7 -0.3 16 13.6 NNE 11 19 6 10 1010.1 1005.2 0.0
06/03:00am 26.9 23.9 0.6 18 12.9 NE 6 11 3 6 1010.2 1005.3 0.0
06/02:30am 26.2 23.6 0.8 19 12.4 SE 4 7 2 4 1010.5 1005.6 0.0
06/02:00am 28.1 25.0 -0.1 16 13.7 SE 6 9 3 5 1010.6 1005.7 0.0
06/01:30am 28.1 25.0 -0.1 16 13.7 SW 6 9 3 5 1011.0 1006.0 0.0
06/01:00am 27.1 25.2 0.8 18 12.9 CALM 0 6 0 3 1011.0 1006.0 0.0
06/12:30am 25.2 21.7 1.3 21 11.7 E 9 15 5 8 1011.3 1006.3 0.0
06/12:00am 24.6 21.8 2.1 23 11.1 ENE 6 7 3 4 1011.3 1006.3 0.0
 
Date/Time
CDT
Temp
°C
App
Temp
°C
Dew
Point
°C
Rel
Hum
%
Delta-T
°C
Wind Press
QNH
hPa
Press
MSL
hPa
Rain since
9am
mm
Dir  Spd
km/h
Gust
km/h
Spd
kts
Gust
kts
05/11:30pm 25.1 22.6 1.3 21 11.6 E 4 7 2 4 1011.2 1006.2 0.0
05/11:00pm 26.0 24.3 2.0 21 12.0 CALM 0 0 0 0 1011.2 1006.2 0.0
05/10:30pm 28.9 26.9 -0.3 15 14.3 CALM 0 0 0 0 1011.2 1006.2 0.0
05/10:00pm 29.0 27.0 -0.2 15 14.3 CALM 0 0 0 0 1011.3 1006.3 0.0
05/09:30pm 30.5 27.4 0.0 14 15.1 WSW 6 7 3 4 1011.2 1006.2 0.0
05/09:00pm 31.7 29.7 -0.1 13 15.9 CALM 0 0 0 0 1011.0 1006.0 0.0
05/08:30pm 33.3 29.3 -2.4 10 17.3 NW 9 13 5 7 1010.7 1005.8 0.0
05/08:00pm 34.9 30.1 -2.6 9 18.3 WNW 13 20 7 11 1010.4 1005.5 0.0
05/07:30pm 35.4 31.8 -2.3 9 18.6 NW 7 11 4 6 1010.3 1005.4 0.0
05/07:00pm 35.9 31.2 -1.9 9 18.8 NNW 13 19 7 10 1010.1 1005.2 0.0
05/06:30pm 35.8 32.2 -2.0 9 18.8 NW 7 15 4 8 1010.0 1005.0 0.0
05/06:00pm 36.3 31.8 -3.2 8 19.3 W 11 20 6 11 1010.0 1005.0 0.0
05/05:30pm 36.5 32.4 -3.0 8 19.4 SW 9 15 5 8 1010.2 1005.3 0.0
05/05:00pm 36.9 30.9 -2.7 8 19.6 WSW 19 30 10 16 1010.4 1005.5 0.0
05/04:30pm 37.9 33.2 -2.0 8 20.1 NW 13 26 7 14 1010.7 1005.8 0.0
05/04:00pm 36.8 32.4 -2.8 8 19.5 WNW 11 22 6 12 1011.0 1006.0 0.0
05/03:30pm 37.3 34.6 -2.4 8 19.8 E 2 9 1 5 1011.3 1006.3 0.0
05/03:00pm 36.2 30.8 -1.7 9 19.0 NE 17 24 9 13 1011.7 1006.8 0.0
05/02:30pm 35.6 29.7 -2.1 9 18.7 NNE 19 26 10 14 1012.1 1007.2 0.0
05/02:00pm 37.1 31.5 -2.6 8 19.7 NE 17 32 9 17 1012.7 1007.8 0.0
05/01:30pm 35.5 30.0 -2.2 9 18.6 NNE 17 28 9 15 1013.2 1008.3 0.0
05/01:00pm 35.5 29.4 -2.2 9 18.6 N 20 32 11 17 1013.6 1008.7 0.0
05/12:30pm 34.9 28.2 -1.2 10 18.0 NNE 24 35 13 19 1014.1 1009.2 0.0
05/12:00pm 35.0 29.1 -1.1 10 18.1 NNE 20 35 11 19 1014.3 1009.4 0.0
05/11:43am 35.4 29.5 -0.8 10 18.3 NNE 20 61 11 33 1014.3 1009.4 0.0
05/11:30am 34.4 28.0 -1.6 10 17.8 NNE 22 30 12 16 1014.4 1009.5 0.0
05/11:09am 33.4 26.0 -1.0 11 17.1 N 28 46 15 25 1014.5 1009.6 0.0
05/11:00am 33.5 27.2 -1.0 11 17.1 N 22 33 12 18 1014.3 1009.4 0.0
05/10:30am 32.7 25.7 -0.4 12 16.5 N 26 35 14 19 1014.5 1009.6 0.0
05/10:00am 31.9 24.6 0.1 13 15.9 NNE 28 41 15 22 1014.6 1009.7 0.0
05/09:30am 30.6 24.2 1.0 15 14.9 NNE 24 39 13 21 1014.6 1009.7 0.0
05/09:00am 29.6 22.7 0.2 15 14.5 NNE 26 39 14 21 1014.5 1009.6 0.0
05/08:30am 28.5 22.0 0.3 16 13.9 NNE 24 39 13 21 1014.1 1009.2 0.0
05/08:00am 27.7 22.0 0.5 17 13.3 NNE 20 28 11 15 1013.7 1008.8 0.0
05/07:30am 25.3 21.8 1.4 21 11.7 NE 9 13 5 7 1013.4 1008.5 0.0
05/07:00am 23.7 20.1 0.7 22 11.0 E 9 11 5 6 1013.0 1008.1 0.0
05/06:30am 22.8 18.8 0.6 23 10.5 E 11 13 6 7 1012.4 1007.4 0.0
05/06:00am 22.5 18.4 -0.3 22 10.6 E 11 13 6 7 1012.4 1007.4 0.0
05/05:30am 23.6 19.1 -0.6 20 11.3 ESE 13 15 7 8 1012.1 1007.2 0.0
05/05:00am 22.1 18.4 0.0 23 10.3 E 9 11 5 6 1011.9 1007.0 0.0
05/04:30am 23.0 18.5 -0.5 21 11.0 E 13 15 7 8 1011.8 1006.9 0.0
05/04:00am 21.9 17.4 -0.1 23 10.2 E 13 15 7 8 1011.7 1006.8 0.0
05/03:30am 24.1 19.1 -0.9 19 11.7 E 15 17 8 9 1011.9 1007.0 0.0
05/03:00am 23.5 19.3 -0.7 20 11.3 E 11 13 6 7 1012.2 1007.3 0.0
05/02:30am 24.6 20.0 -1.3 18 12.0 E 13 17 7 9 1012.5 1007.5 0.0
05/02:00am 24.5 20.0 -0.6 19 11.8 E 13 17 7 9 1012.9 1008.0 0.0
05/01:30am 24.4 20.6 -0.7 19 11.8 ENE 9 11 5 6 1013.6 1008.7 0.0
05/01:00am 24.4 20.6 -0.7 19 11.8 ENE 9 9 5 5 1014.0 1009.1 0.0
05/12:30am 25.6 21.0 -1.2 17 12.6 NE 13 15 7 8 1014.0 1009.1 0.0
05/12:00am 26.3 22.0 -1.5 16 13.0 NE 11 13 6 7 1014.2 1009.3 0.0
 
Date/Time
CDT
Temp
°C
App
Temp
°C
Dew
Point
°C
Rel
Hum
%
Delta-T
°C
Wind Press
QNH
hPa
Press
MSL
hPa
Rain since
9am
mm
Dir  Spd
km/h
Gust
km/h
Spd
kts
Gust
kts
04/11:30pm 29.8 23.9 -2.6 12 15.3 E 19 24 10 13 1014.1 1009.2 0.0
04/11:00pm 30.7 24.1 -3.1 11 15.9 E 22 33 12 18 1013.7 1008.8 0.0
04/10:30pm 30.8 24.6 -3.0 11 16.0 E 20 26 11 14 1013.5 1008.6 0.0
04/10:00pm 30.7 25.6 -1.9 12 15.7 E 15 20 8 11 1013.4 1008.5 0.0
04/09:30pm 31.6 25.7 -2.4 11 16.3 E 19 26 10 14 1013.2 1008.3 0.0
04/09:00pm 32.2 26.3 -2.0 11 16.6 E 19 26 10 14 1012.8 1007.9 0.0
04/08:30pm 32.6 26.6 -2.9 10 17.0 E 19 30 10 16 1012.5 1007.5 0.0
04/08:00pm 33.9 28.0 -2.0 10 17.6 ESE 19 28 10 15 1012.1 1007.2 0.0
04/07:30pm 34.7 28.2 -2.8 9 18.3 E 22 32 12 17 1011.7 1006.8 0.0
04/07:00pm 35.6 29.1 -2.1 9 18.7 ESE 22 32 12 17 1011.4 1006.5 0.0
04/06:30pm 35.8 29.4 -2.0 9 18.8 ESE 22 35 12 19 1011.3 1006.3 0.0
04/06:00pm 36.5 29.6 -3.0 8 19.4 ESE 24 41 13 22 1011.1 1006.1 0.0
04/05:30pm 36.7 29.8 -2.9 8 19.5 ESE 24 39 13 21 1011.0 1006.0 0.0
04/05:00pm 36.5 30.5 -1.4 9 19.1 ESE 20 32 11 17 1011.2 1006.2 0.0
04/04:30pm 36.2 29.8 -1.7 9 19.0 E 22 37 12 20 1011.5 1006.6 0.0
04/04:00pm 36.5 31.1 -1.4 9 19.1 SE 17 35 9 19 1011.8 1006.9 0.0
04/03:30pm 36.2 30.8 -1.7 9 19.0 SE 17 32 9 17 1012.0 1007.1 0.0
04/03:00pm 36.1 30.3 -1.7 9 18.9 ENE 19 35 10 19 1012.4 1007.4 0.0
04/02:30pm 36.5 31.9 -1.4 9 19.1 E 13 28 7 15 1012.9 1008.0 0.0
04/02:00pm 35.5 29.0 -2.2 9 18.6 E 22 32 12 17 1013.3 1008.4 0.0
04/01:30pm 35.5 29.6 -2.2 9 18.6 ENE 19 30 10 16 1013.5 1008.6 0.0
04/01:00pm 35.2 29.8 -1.0 10 18.2 E 17 32 9 17 1014.0 1009.1 0.0
04/12:30pm 33.9 28.0 -2.0 10 17.6 ENE 19 33 10 18 1014.3 1009.4 0.0
04/12:00pm 33.6 28.8 -2.2 10 17.5 NE 13 26 7 14 1014.6 1009.7 0.0
04/11:30am 33.4 28.0 -1.0 11 17.1 NE 17 26 9 14 1014.7 1009.8 0.0
04/11:00am 32.1 26.8 -0.9 12 16.3 NNE 17 26 9 14 1014.9 1010.0 0.0
04/10:30am 31.2 25.2 -1.5 12 15.9 NNE 20 28 11 15 1015.0 1010.1 0.0
04/10:00am 30.4 24.6 -0.1 14 15.1 NNE 20 30 11 16 1015.0 1010.1 0.0
04/09:30am 29.7 24.1 1.2 16 14.3 NNE 20 28 11 15 1015.0 1010.1 0.0
04/09:00am 29.0 23.4 1.5 17 13.8 NNE 20 33 11 18 1015.0 1010.1 0.0
04/08:30am 27.3 23.7 0.9 18 13.0 ENE 9 17 5 9 1014.8 1009.9 0.0
04/08:00am 25.5 23.5 0.2 19 12.2 CALM 0 6 0 3 1014.6 1009.7 0.0
04/07:30am 23.5 20.4 -0.1 21 11.1 E 6 7 3 4 1014.2 1009.3 0.0
04/07:00am 21.8 18.4 -2.1 20 10.7 SE 6 7 3 4 1013.9 1008.9 0.0
04/06:30am 21.1 17.5 -2.0 21 10.3 ENE 7 9 4 5 1013.4 1008.5 0.0
04/06:00am 21.9 18.2 -2.7 19 10.9 E 7 9 4 5 1013.1 1008.2 0.0
04/05:30am 22.3 18.6 -3.1 18 11.2 ESE 7 9 4 5 1012.8 1007.9 0.0
04/05:00am 22.1 19.6 -4.1 17 11.3 CALM 0 0 0 0 1012.6 1007.6 0.0
04/04:30am 20.9 18.4 -3.6 19 10.6 CALM 0 0 0 0 1012.6 1007.6 0.0
04/04:00am 21.2 18.8 -3.3 19 10.6 CALM 0 0 0 0 1012.6 1007.6 0.0
04/03:30am 21.5 18.9 -4.5 17 11.1 CALM 0 0 0 0 1012.7 1007.8 0.0
04/03:00am 21.0 18.6 -2.8 20 10.4 CALM 0 0 0 0 1012.8 1007.9 0.0
04/02:30am 22.2 19.9 -2.5 19 11.0 CALM 0 0 0 0 1013.0 1008.1 0.0
04/02:00am 22.3 18.5 -3.9 17 11.4 E 7 11 4 6 1013.1 1008.2 0.0
04/01:30am 22.9 18.8 -3.4 17 11.6 ENE 9 11 5 6 1013.3 1008.4 0.0
04/01:00am 23.2 18.7 -3.2 17 11.7 ENE 11 13 6 7 1013.3 1008.4 0.0
04/12:30am 24.7 19.7 -4.6 14 12.8 ENE 13 19 7 10 1013.5 1008.6 0.0
04/12:00am 27.9 22.0 -5.2 11 14.7 E 17 24 9 13 1013.7 1008.8 0.0
 
Date/Time
CDT
Temp
°C
App
Temp
°C
Dew
Point
°C
Rel
Hum
%
Delta-T
°C
Wind Press
QNH
hPa
Press
MSL
hPa
Rain since
9am
mm
Dir  Spd
km/h
Gust
km/h
Spd
kts
Gust
kts
03/11:30pm 26.5 22.2 -5.2 12 13.9 E 9 15 5 8 1013.7 1008.8 0.0
03/11:00pm 29.2 22.8 -6.9 9 15.7 ESE 19 24 10 13 1013.6 1008.7 0.0
03/10:30pm 29.4 23.8 -6.7 9 15.8 ESE 15 22 8 12 1013.2 1008.3 0.0
03/10:00pm 29.8 24.1 -8.0 8 16.2 SE 15 20 8 11 1012.8 1007.9 0.0
03/09:30pm 30.3 24.6 -7.6 8 16.5 SE 15 24 8 13 1012.5 1007.5 0.0
03/09:00pm 31.4 24.9 -8.5 7 17.2 SE 19 28 10 15 1012.0 1007.1 0.0
03/08:30pm 32.4 25.7 -7.8 7 17.7 SE 20 32 11 17 1011.5 1006.6 0.0
03/08:00pm 33.2 26.6 -7.2 7 18.1 SSE 20 32 11 17 1011.1 1006.1 0.0
03/07:30pm 34.1 26.4 -6.5 7 18.5 SE 26 35 14 19 1010.5 1005.6 0.0
03/07:00pm 34.8 27.9 -6.0 7 18.9 SE 22 35 12 19 1010.2 1005.3 0.0
03/06:30pm 35.6 28.8 -5.5 7 19.3 S 22 35 12 19 1009.9 1004.9 0.0
03/06:00pm 35.7 28.9 -5.4 7 19.3 SSE 22 35 12 19 1009.8 1004.8 0.0
03/05:30pm 35.7 28.1 -5.4 7 19.3 SSE 26 39 14 21 1009.8 1004.8 0.0
03/05:19pm 36.0 28.1 -5.2 7 19.5 SE 28 46 15 25 1009.8 1004.8 0.0
03/05:00pm 36.0 28.1 -5.2 7 19.5 SSE 28 37 15 20 1010.0 1005.0 0.0
03/04:33pm 36.0 28.1 -5.2 7 19.5 SE 28 50 15 27 1010.1 1005.2 0.0
03/04:30pm 35.8 29.0 -5.3 7 19.4 SE 22 43 12 23 1010.0 1005.0 0.0
03/04:00pm 36.1 29.3 -5.1 7 19.5 SE 22 37 12 20 1010.4 1005.5 0.0
03/03:30pm 35.5 28.3 -5.5 7 19.2 SSE 24 35 13 19 1010.9 1005.9 0.0
03/03:00pm 35.5 28.8 -3.8 8 18.9 SE 22 35 12 19 1011.3 1006.3 0.0
03/02:30pm 34.5 28.7 -4.5 8 18.5 ESE 17 28 9 15 1011.6 1006.7 0.0
03/02:00pm 34.4 28.8 -3.0 9 18.1 S 17 28 9 15 1012.2 1007.3 0.0
03/01:30pm 34.1 28.6 -1.8 10 17.7 SW 17 28 9 15 1012.7 1007.8 0.0
03/01:00pm 33.3 28.5 -2.4 10 17.3 NW 13 19 7 10 1013.1 1008.2 0.0
03/12:30pm 32.7 28.0 -1.6 11 16.8 WNW 13 22 7 12 1013.5 1008.6 0.0
03/12:00pm 31.8 27.2 -1.1 12 16.1 N 13 24 7 13 1014.0 1009.1 0.0
03/11:30am 31.0 25.8 0.4 14 15.3 N 17 24 9 13 1014.5 1009.6 0.0
03/11:00am 30.4 25.3 0.9 15 14.8 N 17 28 9 15 1014.7 1009.8 0.0
03/10:30am 28.7 23.0 0.4 16 13.9 NNE 20 26 11 14 1014.9 1010.0 0.0
03/10:00am 28.0 22.3 0.7 17 13.5 NNE 20 30 11 16 1015.0 1010.1 0.0
03/09:30am 27.3 21.3 0.9 18 13.0 NNE 22 33 12 18 1014.9 1010.0 0.0
03/09:00am 26.1 21.0 0.7 19 12.4 NE 17 24 9 13 1014.9 1010.0 0.0

Other formats

Comma delimited format used in spreadsheet applications
http://www.bom.gov.au/fwo/IDS60801/IDS60801.94474.axf

JavaScript Object Notation format (JSON) in row-major order
http://www.bom.gov.au/fwo/IDS60801/IDS60801.94474.json

Data quality

Most of these data are generated automatically and are frequently updated. Quality checks on data are not normally performed. It is possible for incorrect values to appear. Refer to information at About Latest Weather Observations and please check the disclaimer before using these data.